Time;durP1;ratioP1;P1;durP2;ratioP2;P2;SDS_P1;SDS_P2;PMS_P1;PMS_P2;Temp;Humidity;BMP_temperature;BMP_pressure;BME280_temperature;BME280_humidity;BME280_pressure;Samples;Min_cycle;Max_cycle;Signal;HPM_P1;HPM_P2
2021/09/04 00:00:28;;;;;;;1999.90;999.90;;;;;;;13.72;48.59;101418.53;5014206;27;96820;-75
2021/09/04 00:02:56;;;;;;;1999.90;999.90;;;;;;;13.70;48.52;101410.47;5033506;27;96605;-75
2021/09/04 00:05:25;;;;;;;1999.90;999.90;;;;;;;13.67;48.54;101413.13;5033277;27;98708;-75
2021/09/04 00:07:52;;;;;;;1999.90;999.90;;;;;;;13.62;48.66;101406.75;5032157;27;97496;-77
2021/09/04 00:10:21;;;;;;;1999.90;999.90;;;;;;;13.56;48.82;101398.66;5032998;27;97059;-76
2021/09/04 00:12:49;;;;;;;1999.90;999.90;;;;;;;13.53;48.95;101403.03;5029041;27;96826;-76
2021/09/04 00:15:19;;;;;;;1999.90;999.90;;;;;;;13.49;49.05;101404.75;5032378;27;97746;-76
2021/09/04 00:17:47;;;;;;;1999.90;999.90;;;;;;;13.47;49.09;101395.78;5031454;27;98835;-76
2021/09/04 00:20:18;;;;;;;1999.90;999.90;;;;;;;13.44;49.13;101401.06;5032157;27;97431;-76
2021/09/04 00:22:46;;;;;;;1999.90;999.90;;;;;;;13.41;49.22;101397.44;5048095;27;97275;-75
2021/09/04 00:25:15;;;;;;;1999.90;999.90;;;;;;;13.39;49.17;101405.44;5033936;27;100458;-76
2021/09/04 00:27:43;;;;;;;1999.90;999.90;;;;;;;13.34;49.33;101404.44;5028108;27;99297;-75
2021/09/04 00:30:14;;;;;;;1999.90;999.90;;;;;;;13.29;49.38;101399.88;5038307;27;97001;-76
2021/09/04 00:32:44;;;;;;;1999.90;999.90;;;;;;;13.22;49.53;101406.88;5035936;27;96768;-77
2021/09/04 00:35:12;;;;;;;1999.90;999.90;;;;;;;13.12;49.61;101408.47;5042278;27;99970;-76
2021/09/04 00:37:40;;;;;;;1999.90;999.90;;;;;;;13.11;49.62;101408.44;5036290;27;97723;-76
2021/09/04 00:40:09;;;;;;;1999.90;999.90;;;;;;;13.10;49.73;101404.84;5034862;27;96868;-74
2021/09/04 00:42:37;;;;;;;1999.90;999.90;;;;;;;13.09;49.72;101402.16;5035186;27;97222;-74
2021/09/04 00:45:06;;;;;;;1999.90;999.90;;;;;;;13.09;49.63;101396.81;5017024;27;100579;-76
2021/09/04 00:47:35;;;;;;;1999.90;999.90;;;;;;;13.07;49.65;101409.25;5042265;27;97995;-75
2021/09/04 00:50:05;;;;;;;1999.90;999.90;;;;;;;12.96;49.89;101405.41;5032934;27;96855;-76
2021/09/04 00:52:33;;;;;;;1999.90;999.90;;;;;;;12.94;49.99;101407.13;5034548;27;96891;-75
2021/09/04 00:55:01;;;;;;;1999.90;999.90;;;;;;;12.90;50.19;101406.16;5031869;27;99480;-77
2021/09/04 00:57:30;;;;;;;1999.90;999.90;;;;;;;12.83;50.16;101395.31;5029234;27;98903;-75
2021/09/04 00:59:58;;;;;;;1999.90;999.90;;;;;;;12.77;50.29;101401.44;5034306;27;96734;-76
2021/09/04 01:02:28;;;;;;;1999.90;999.90;;;;;;;12.75;50.28;101396.91;5016014;27;96778;-76
2021/09/04 01:04:57;;;;;;;1999.90;999.90;;;;;;;12.70;50.36;101395.91;5032709;27;98377;-76
2021/09/04 01:07:27;;;;;;;1999.90;999.90;;;;;;;12.67;50.44;101398.53;5023916;27;99510;-76
2021/09/04 01:09:55;;;;;;;1999.90;999.90;;;;;;;12.66;50.47;101404.72;5034086;27;97138;-75
2021/09/04 01:12:23;;;;;;;1999.90;999.90;;;;;;;12.65;50.38;101408.28;5024137;27;96858;-76
2021/09/04 01:14:51;;;;;;;1999.90;999.90;;;;;;;12.64;50.55;101407.34;5031394;27;99322;-76
2021/09/04 01:17:19;;;;;;;1999.90;999.90;;;;;;;12.60;50.61;101410.81;5014703;27;101017;-76
2021/09/04 01:19:47;;;;;;;1999.90;999.90;;;;;;;12.58;50.59;101411.66;5035247;27;96909;-76
2021/09/04 01:22:15;;;;;;;1999.90;999.90;;;;;;;12.56;50.65;101410.72;5015996;27;96778;-76
2021/09/04 01:24:48;;;;;;;1999.90;999.90;;;;;;;12.53;50.61;101406.22;5049598;27;97739;-75
2021/09/04 01:27:18;;;;;;;1999.90;999.90;;;;;;;12.55;50.62;101407.16;5030007;27;97785;-74
2021/09/04 01:29:47;;;;;;;1999.90;999.90;;;;;;;12.51;50.72;101404.41;5011766;27;97300;-75
2021/09/04 01:32:14;;;;;;;1999.90;999.90;;;;;;;12.49;50.69;101416.78;5027877;27;96784;-75
2021/09/04 01:34:42;;;;;;;1999.90;999.90;;;;;;;12.45;50.63;101409.56;5033689;27;97102;-75
2021/09/04 01:37:10;;;;;;;1999.90;999.90;;;;;;;12.42;50.72;101412.19;5031712;27;99413;-75
2021/09/04 01:39:38;;;;;;;1999.90;999.90;;;;;;;12.40;50.73;101411.25;5016196;27;97461;-76
2021/09/04 01:42:06;;;;;;;1999.90;999.90;;;;;;;12.37;50.68;101413.81;5034096;27;97253;-76
2021/09/04 01:44:36;;;;;;;1999.90;999.90;;;;;;;12.26;50.89;101410.91;5031320;27;98719;-74
2021/09/04 01:47:04;;;;;;;1999.90;999.90;;;;;;;12.23;51.06;101409.94;5041529;27;99259;-76
2021/09/04 01:49:32;;;;;;;1999.90;999.90;;;;;;;12.22;50.96;101408.13;5031926;27;96977;-75
2021/09/04 01:52:00;;;;;;;1999.90;999.90;;;;;;;12.20;51.17;101410.75;5041255;27;97337;-74
2021/09/04 01:54:28;;;;;;;1999.90;999.90;;;;;;;12.15;51.06;101407.94;5031424;27;99684;-76
2021/09/04 01:56:56;;;;;;;1999.90;999.90;;;;;;;12.10;51.30;101406.94;5032269;27;99270;-76
2021/09/04 01:59:23;;;;;;;1999.90;999.90;;;;;;;12.07;51.38;101405.97;5038063;27;97562;-75
2021/09/04 02:01:53;;;;;;;1999.90;999.90;;;;;;;12.09;51.14;101404.19;5035674;27;96884;-75
2021/09/04 02:04:21;;;;;;;1999.90;999.90;;;;;;;12.08;51.28;101400.66;5030972;27;98581;-76
2021/09/04 02:06:49;;;;;;;1999.90;999.90;;;;;;;12.05;51.25;101410.34;5013603;27;99987;-75
2021/09/04 02:09:17;;;;;;;1999.90;999.90;;;;;;;11.97;51.32;101409.25;5031321;27;96881;-76
2021/09/04 02:11:45;;;;;;;1999.90;999.90;;;;;;;11.91;51.67;101409.06;5014331;27;96746;-76
2021/09/04 02:14:13;;;;;;;1999.90;999.90;;;;;;;11.90;51.46;101404.63;5027316;27;100723;-75
2021/09/04 02:16:41;;;;;;;1999.90;999.90;;;;;;;11.91;51.61;101403.75;5033243;27;100561;-75
2021/09/04 02:19:11;;;;;;;1999.90;999.90;;;;;;;11.86;51.70;101406.31;5030625;27;96947;-76
2021/09/04 02:21:40;;;;;;;1999.90;999.90;;;;;;;11.73;51.87;101404.19;5029449;27;96793;-75
2021/09/04 02:24:08;;;;;;;1999.90;999.90;;;;;;;11.64;52.02;101406.59;5044213;27;99027;-75
2021/09/04 02:26:37;;;;;;;1999.90;999.90;;;;;;;11.57;52.17;101404.66;5011660;27;99214;-76
2021/09/04 02:29:05;;;;;;;1999.90;999.90;;;;;;;11.49;52.22;101406.19;5031328;27;97172;-76
2021/09/04 02:31:33;;;;;;;1999.90;999.90;;;;;;;11.37;52.44;101408.53;5028299;27;97295;-75
2021/09/04 02:34:01;;;;;;;1999.90;999.90;;;;;;;11.34;52.54;101403.13;5031090;27;99313;-75
2021/09/04 02:36:30;;;;;;;1999.90;999.90;;;;;;;11.35;52.55;101410.25;5012864;27;100460;-74
2021/09/04 02:38:59;;;;;;;1999.90;999.90;;;;;;;11.27;52.80;101406.41;5031835;27;96690;-75
2021/09/04 02:41:27;;;;;;;1999.90;999.90;;;;;;;11.17;52.92;101418.59;5029112;27;96771;-76
2021/09/04 02:43:55;;;;;;;1999.90;999.90;;;;;;;11.10;52.74;101413.03;5022692;27;99542;-76
2021/09/04 02:46:25;;;;;;;1999.90;999.90;;;;;;;11.05;52.94;101418.22;5021020;27;99206;-76
2021/09/04 02:48:54;;;;;;;1999.90;999.90;;;;;;;10.95;53.28;101415.25;5030441;27;96813;-76
2021/09/04 02:51:23;;;;;;;1999.90;999.90;;;;;;;10.87;53.38;101408.78;5028515;27;96776;-74
2021/09/04 02:53:53;;;;;;;1999.90;999.90;;;;;;;10.87;53.21;101414.09;5030357;27;100107;-75
2021/09/04 02:56:22;;;;;;;1999.90;999.90;;;;;;;10.85;53.33;101415.84;5028617;27;99709;-75
2021/09/04 02:58:50;;;;;;;1999.90;999.90;;;;;;;10.89;53.20;101409.72;5013803;27;97224;-76
2021/09/04 03:01:19;;;;;;;1999.90;999.90;;;;;;;10.84;53.18;101412.28;5028574;27;96691;-75
2021/09/04 03:03:48;;;;;;;1999.90;999.90;;;;;;;10.88;53.13;101413.28;5031516;27;99301;-76
2021/09/04 03:06:16;;;;;;;1999.90;999.90;;;;;;;10.83;53.38;101420.22;5015132;27;99692;-74
2021/09/04 03:08:44;;;;;;;1999.90;999.90;;;;;;;10.76;53.36;101419.13;5030815;27;97087;-74
2021/09/04 03:11:14;;;;;;;1999.90;999.90;;;;;;;10.74;53.45;101417.28;5031360;27;97288;-76
2021/09/04 03:13:42;;;;;;;1999.90;999.90;;;;;;;10.66;53.53;101408.16;5028748;27;99538;-76
2021/09/04 03:16:10;;;;;;;1999.90;999.90;;;;;;;10.66;53.54;101413.47;5030383;27;100403;-75
2021/09/04 03:18:38;;;;;;;1999.90;999.90;;;;;;;10.64;53.60;101416.09;5013846;27;97039;-77
2021/09/04 03:21:05;;;;;;;1999.90;999.90;;;;;;;10.59;53.71;101411.47;5012084;27;96821;-76
2021/09/04 03:23:35;;;;;;;1999.90;999.90;;;;;;;10.53;53.99;101411.28;5029315;27;99583;-76
2021/09/04 03:26:04;;;;;;;1999.90;999.90;;;;;;;10.49;53.84;101414.69;5014048;27;99239;-76
2021/09/04 03:28:34;;;;;;;1999.90;999.90;;;;;;;10.51;53.98;101415.66;5013669;27;97113;-76
2021/09/04 03:31:02;;;;;;;1999.90;999.90;;;;;;;10.50;53.83;101421.84;5031637;27;96920;-77
2021/09/04 03:33:30;;;;;;;1999.90;999.90;;;;;;;10.42;54.08;101423.34;5032881;27;97758;-76
2021/09/04 03:35:59;;;;;;;1999.90;999.90;;;;;;;10.39;54.07;101423.22;5013856;27;99591;-76
2021/09/04 03:38:27;;;;;;;1999.90;999.90;;;;;;;10.42;53.88;101420.69;5030190;27;96997;-77
2021/09/04 03:40:56;;;;;;;1999.90;999.90;;;;;;;10.47;53.97;101419.06;5029219;27;97569;-76
2021/09/04 03:43:24;;;;;;;1999.90;999.90;;;;;;;10.53;53.94;101427.25;5030312;27;99663;-76
2021/09/04 03:45:53;;;;;;;1999.90;999.90;;;;;;;10.53;53.88;101424.59;5030411;27;97534;-76
2021/09/04 03:48:22;;;;;;;1999.90;999.90;;;;;;;10.49;53.90;101425.34;5031602;27;96826;-75
2021/09/04 03:50:50;;;;;;;1999.90;999.90;;;;;;;10.55;53.85;101422.88;5034664;27;96804;-76
2021/09/04 03:53:19;;;;;;;1999.90;999.90;;;;;;;10.54;54.03;101429.94;5030347;27;98698;-76
2021/09/04 03:55:48;;;;;;;1999.90;999.90;;;;;;;10.51;54.06;101424.53;5031165;27;101850;-76
2021/09/04 03:58:16;;;;;;;1999.90;999.90;;;;;;;10.47;54.06;101427.03;5036206;27;97342;-77
2021/09/04 04:00:45;;;;;;;1999.90;999.90;;;;;;;10.46;54.09;101436.81;5029138;27;96851;-75
2021/09/04 04:03:15;;;;;;;1999.90;999.90;;;;;;;10.49;53.92;101431.56;5003415;27;99618;-75
2021/09/04 04:05:43;;;;;;;1999.90;999.90;;;;;;;10.52;54.05;101430.78;5030982;27;100551;-75
2021/09/04 04:08:12;;;;;;;1999.90;999.90;;;;;;;10.55;53.87;101430.88;5027280;27;97320;-75
2021/09/04 04:10:41;;;;;;;1999.90;999.90;;;;;;;10.56;53.94;101427.34;4998553;27;97252;-75
2021/09/04 04:13:08;;;;;;;1999.90;999.90;;;;;;;10.61;53.98;101426.63;5028733;27;99041;-76
2021/09/04 04:15:37;;;;;;;1999.90;999.90;;;;;;;10.70;53.65;101426.03;5027011;27;99335;-77
2021/09/04 04:18:06;;;;;;;1999.90;999.90;;;;;;;10.79;53.50;101431.63;5028015;27;96880;-76
2021/09/04 04:20:35;;;;;;;1999.90;999.90;;;;;;;10.87;53.20;101430.09;5030837;27;96799;-76
2021/09/04 04:23:03;;;;;;;1999.90;999.90;;;;;;;10.86;53.32;101426.53;5024097;27;99676;-76
2021/09/04 04:25:31;;;;;;;1999.90;999.90;;;;;;;10.90;53.28;101430.19;5009280;27;99604;-76
2021/09/04 04:28:00;;;;;;;1999.90;999.90;;;;;;;10.93;53.25;101430.28;5030107;27;97109;-77
2021/09/04 04:30:28;;;;;;;1999.90;999.90;;;;;;;10.95;53.22;101426.81;5009061;27;97331;-77
2021/09/04 04:32:57;;;;;;;1999.90;999.90;;;;;;;10.95;53.23;101428.56;5027160;27;98215;-77
2021/09/04 04:35:25;;;;;;;1999.90;999.90;;;;;;;10.92;53.14;101432.03;5010151;27;100445;-77
2021/09/04 04:37:55;;;;;;;1999.90;999.90;;;;;;;10.87;53.04;101438.06;5013271;27;97268;-75
2021/09/04 04:40:23;;;;;;;1999.90;999.90;;;;;;;10.86;53.42;101439.84;5030338;27;96762;-76
2021/09/04 04:42:51;;;;;;;1999.90;999.90;;;;;;;10.87;53.16;101438.06;5026885;27;99397;-77
2021/09/04 04:45:19;;;;;;;1999.90;999.90;;;;;;;10.84;53.42;101430.00;5024214;27;96991;-77
2021/09/04 04:47:49;;;;;;;1999.90;999.90;;;;;;;10.86;53.45;101433.63;5026506;27;97146;-76
2021/09/04 04:50:19;;;;;;;1999.90;999.90;;;;;;;10.92;53.36;101440.03;5022963;27;96827;-76
2021/09/04 04:52:47;;;;;;;1999.90;999.90;;;;;;;10.90;53.56;101435.53;5024372;27;97899;-75
2021/09/04 04:55:18;;;;;;;1999.90;999.90;;;;;;;10.94;53.34;101434.75;5042813;27;98788;-77
2021/09/04 04:57:45;;;;;;;1999.90;999.90;;;;;;;10.97;53.13;101432.19;5030732;27;97153;-76
2021/09/04 05:00:15;;;;;;;1999.90;999.90;;;;;;;11.02;53.16;101433.22;5033154;27;96990;-77
2021/09/04 05:02:43;;;;;;;1999.90;999.90;;;;;;;11.08;52.90;101430.75;5017399;27;99224;-76
2021/09/04 05:05:13;;;;;;;1999.90;999.90;;;;;;;11.08;52.93;101430.75;5035511;27;99224;-77
2021/09/04 05:07:41;;;;;;;1999.90;999.90;;;;;;;11.09;53.03;101435.19;5026460;27;97536;-77
2021/09/04 05:10:11;;;;;;;1999.90;999.90;;;;;;;11.12;52.95;101432.63;5041746;27;96898;-76
2021/09/04 05:12:41;;;;;;;1999.90;999.90;;;;;;;11.10;52.97;101429.03;5007200;27;98129;-77
2021/09/04 05:15:11;;;;;;;1999.90;999.90;;;;;;;11.12;52.78;101437.97;5022335;27;98218;-78
2021/09/04 05:17:40;;;;;;;1999.90;999.90;;;;;;;11.11;52.95;101437.06;5019371;27;96859;-76
2021/09/04 05:20:10;;;;;;;1999.90;999.90;;;;;;;11.02;52.99;101438.53;5008816;27;97435;-77
2021/09/04 05:22:42;;;;;;;1999.90;999.90;;;;;;;11.00;52.98;101438.50;5017422;27;100635;-78
2021/09/04 05:25:15;;;;;;;1999.90;999.90;;;;;;;11.02;52.91;101435.88;5006501;27;100100;-76
2021/09/04 05:27:45;;;;;;;1999.90;999.90;;;;;;;11.04;52.76;101437.75;5009821;27;97133;-78
2021/09/04 05:30:13;;;;;;;1999.90;999.90;;;;;;;11.09;52.77;101437.84;5009797;27;97002;-77
2021/09/04 05:32:41;;;;;;;1999.90;999.90;;;;;;;11.10;52.59;101447.69;5029169;27;99078;-77
2021/09/04 05:35:10;;;;;;;1999.90;999.90;;;;;;;11.12;52.36;101438.84;5037891;27;99596;-77
2021/09/04 05:37:38;;;;;;;1999.90;999.90;;;;;;;11.15;52.44;101451.38;5027170;27;96900;-77
2021/09/04 05:40:07;;;;;;;1999.90;999.90;;;;;;;11.17;52.29;101445.25;5028216;27;97343;-76
2021/09/04 05:42:35;;;;;;;1999.90;999.90;;;;;;;11.20;52.03;101449.72;5032858;27;100728;-77
2021/09/04 05:45:05;;;;;;;1999.90;999.90;;;;;;;11.19;52.39;101448.84;5029781;27;99215;-77
2021/09/04 05:47:34;;;;;;;1999.90;999.90;;;;;;;11.20;52.22;101447.97;5036191;27;96724;-77
2021/09/04 05:50:03;;;;;;;1999.90;999.90;;;;;;;11.12;52.42;101448.63;5026047;27;96936;-78
2021/09/04 05:52:31;;;;;;;1999.90;999.90;;;;;;;11.09;52.29;101448.50;5037555;27;99336;-76
2021/09/04 05:54:59;;;;;;;1999.90;999.90;;;;;;;11.11;52.17;101450.38;5020076;27;99359;-77
2021/09/04 05:57:27;;;;;;;1999.90;999.90;;;;;;;11.13;52.31;101455.75;5038309;27;96875;-78
2021/09/04 05:59:55;;;;;;;1999.90;999.90;;;;;;;11.15;52.03;101460.28;5037380;27;97238;-77
2021/09/04 06:02:24;;;;;;;1999.90;999.90;;;;;;;11.16;52.16;101456.72;5035631;27;99484;-77
2021/09/04 06:04:52;;;;;;;1999.90;999.90;;;;;;;11.16;51.93;101453.16;5032015;27;99173;-77
2021/09/04 06:07:20;;;;;;;1999.90;999.90;;;;;;;11.18;51.86;101451.44;5033033;27;96739;-77
2021/09/04 06:09:48;;;;;;;1999.90;999.90;;;;;;;11.19;52.05;101454.19;5030915;27;96894;-78
2021/09/04 06:12:16;;;;;;;1999.90;999.90;;;;;;;11.19;51.92;101451.50;5016580;27;99663;-76
2021/09/04 06:14:44;;;;;;;1999.90;999.90;;;;;;;11.19;51.96;101451.50;5034618;27;99237;-76
2021/09/04 06:17:12;;;;;;;1999.90;999.90;;;;;;;11.20;51.92;101461.31;5013338;27;96874;-76
2021/09/04 06:19:41;;;;;;;1999.90;999.90;;;;;;;11.23;51.82;101461.38;5017758;27;97526;-76
2021/09/04 06:22:09;;;;;;;1999.90;999.90;;;;;;;11.21;51.65;101460.44;5011640;27;99910;-76
2021/09/04 06:24:38;;;;;;;1999.90;999.90;;;;;;;11.22;51.70;101466.66;5025887;27;99639;-75
2021/09/04 06:27:06;;;;;;;1999.90;999.90;;;;;;;11.23;51.48;101463.16;5027392;27;97206;-75
2021/09/04 06:29:34;;;;;;;1999.90;999.90;;;;;;;11.15;51.67;101462.94;5031244;27;98198;-74
2021/09/04 06:32:05;;;;;;;1999.90;999.90;;;;;;;11.12;51.93;101469.94;5029441;27;97578;-76
2021/09/04 06:34:33;;;;;;;1999.90;999.90;;;;;;;11.11;51.77;101485.00;5024542;27;97590;-76
2021/09/04 06:37:03;;;;;;;1999.90;999.90;;;;;;;11.09;51.83;101481.38;5026868;27;97175;-74
2021/09/04 06:39:31;;;;;;;1999.90;999.90;;;;;;;11.09;51.75;101477.81;5008010;27;97397;-76
2021/09/04 06:41:59;;;;;;;1999.90;999.90;;;;;;;11.06;51.52;101483.97;5007052;27;99353;-75
2021/09/04 06:44:27;;;;;;;1999.90;999.90;;;;;;;11.01;51.55;101484.69;5027171;27;97657;-76
2021/09/04 06:46:55;;;;;;;1999.90;999.90;;;;;;;11.02;51.76;101495.38;5027452;27;96753;-74
2021/09/04 06:49:24;;;;;;;1999.90;999.90;;;;;;;11.04;51.66;101498.09;5031879;27;97270;-74
2021/09/04 06:51:52;;;;;;;1999.90;999.90;;;;;;;11.04;51.49;101496.34;5031285;27;99171;-76
2021/09/04 06:54:24;;;;;;;1999.90;999.90;;;;;;;11.05;51.36;101489.22;5029480;27;97819;-75
2021/09/04 06:56:52;;;;;;;1999.90;999.90;;;;;;;11.06;51.26;101494.63;5032404;27;97080;-75
2021/09/04 06:59:20;;;;;;;1999.90;999.90;;;;;;;11.06;51.18;101491.03;5032173;27;96886;-75
2021/09/04 07:01:49;;;;;;;1999.90;999.90;;;;;;;11.07;51.22;101492.84;5012994;27;99796;-77
2021/09/04 07:04:17;;;;;;;1999.90;999.90;;;;;;;11.06;51.12;101491.03;5038779;27;99741;-76
2021/09/04 07:06:49;;;;;;;1999.90;999.90;;;;;;;10.95;51.38;101487.16;5030915;27;96764;-75
2021/09/04 07:09:17;;;;;;;1999.90;999.90;;;;;;;10.87;51.38;101486.91;5031551;27;97054;-75
2021/09/04 07:11:46;;;;;;;1999.90;999.90;;;;;;;10.75;51.50;101488.28;5012742;27;99880;-76
2021/09/04 07:14:14;;;;;;;1999.90;999.90;;;;;;;10.65;51.71;101486.22;5013354;27;99815;-77
2021/09/04 07:16:42;;;;;;;1999.90;999.90;;;;;;;10.53;51.71;101493.78;5009794;27;96894;-75
2021/09/04 07:19:11;;;;;;;1999.90;999.90;;;;;;;10.43;52.03;101489.03;5015433;27;96841;-76
2021/09/04 07:21:39;;;;;;;1999.90;999.90;;;;;;;10.30;52.15;101487.69;5028809;27;100075;-74
2021/09/04 07:24:07;;;;;;;1999.90;999.90;;;;;;;10.23;52.27;101491.88;5028232;27;97933;-78
2021/09/04 07:26:35;;;;;;;1999.90;999.90;;;;;;;10.11;52.48;101496.78;5031738;27;96917;-76
2021/09/04 07:29:04;;;;;;;1999.90;999.90;;;;;;;10.06;52.38;101502.81;5029995;27;96763;-76
2021/09/04 07:31:32;;;;;;;1999.90;999.90;;;;;;;10.00;52.55;101503.50;5010628;27;100649;-76
2021/09/04 07:34:00;;;;;;;1999.90;999.90;;;;;;;10.04;52.46;101500.09;5029008;27;96969;-76
2021/09/04 07:36:29;;;;;;;1999.90;999.90;;;;;;;10.04;52.32;101505.41;5011645;27;98137;-76
2021/09/04 07:38:59;;;;;;;1999.90;999.90;;;;;;;10.06;52.40;101502.81;5014226;27;97122;-76
2021/09/04 07:41:55;;;;;;;1999.90;999.90;;;;;;;10.11;52.28;101503.84;5046581;27;99487;-77
2021/09/04 07:44:28;;;;;;;1999.90;999.90;;;;;;;10.14;52.15;101502.22;5031431;27;97895;-77
2021/09/04 07:46:55;;;;;;;1999.90;999.90;;;;;;;10.16;52.07;101494.28;5026063;27;97098;-76
2021/09/04 07:49:27;;;;;;;1999.90;999.90;;;;;;;10.23;51.97;101506.94;5024644;27;96917;-77
2021/09/04 07:51:56;;;;;;;1999.90;999.90;;;;;;;10.32;51.84;101509.00;5029214;27;97268;-76
2021/09/04 07:54:27;;;;;;;1999.90;999.90;;;;;;;10.43;51.73;101510.31;5040547;27;98010;-76
2021/09/04 07:56:57;;;;;;;1999.90;999.90;;;;;;;10.51;51.61;101509.69;5015667;27;97168;-75
2021/09/04 08:00:09;;;;;;;1999.90;999.90;;;;;;;10.58;51.51;101510.78;5034587;27;96791;-76
2021/09/04 08:02:39;;;;;;;1999.90;999.90;;;;;;;10.64;51.49;101516.31;5029306;27;99218;-76
2021/09/04 08:05:09;;;;;;;1999.90;999.90;;;;;;;10.72;51.37;101517.50;5031100;27;99267;-75
2021/09/04 08:07:37;;;;;;;1999.90;999.90;;;;;;;10.82;51.32;101523.16;5009056;27;98200;-75
2021/09/04 08:10:06;;;;;;;1999.90;999.90;;;;;;;10.86;51.11;101524.16;5013355;27;96865;-77
2021/09/04 08:12:37;;;;;;;1999.90;999.90;;;;;;;10.88;51.11;101526.00;5012402;27;101642;-76
2021/09/04 08:15:08;;;;;;;1999.90;999.90;;;;;;;10.94;50.88;101519.97;5045141;27;99317;-76
2021/09/04 08:17:37;;;;;;;1999.90;999.90;;;;;;;11.01;50.83;101524.63;5028160;27;96900;-76
2021/09/04 08:20:07;;;;;;;1999.90;999.90;;;;;;;11.06;50.82;101528.34;5029793;27;96831;-77
2021/09/04 08:22:36;;;;;;;1999.90;999.90;;;;;;;11.10;50.58;101527.59;5029483;27;99614;-76
2021/09/04 08:25:05;;;;;;;1999.90;999.90;;;;;;;11.09;50.60;101528.41;5044129;27;97510;-77
2021/09/04 08:27:36;;;;;;;1999.90;999.90;;;;;;;11.10;50.72;101530.25;5026450;27;97269;-75
2021/09/04 08:30:10;;;;;;;1999.90;999.90;;;;;;;11.10;50.56;101530.25;5025121;27;96929;-76
2021/09/04 08:32:41;;;;;;;1999.90;999.90;;;;;;;11.08;50.57;101526.63;5026915;27;98069;-77
2021/09/04 08:35:10;;;;;;;1999.90;999.90;;;;;;;11.05;50.58;101523.84;5025178;27;99087;-77
2021/09/04 08:37:41;;;;;;;1999.90;999.90;;;;;;;11.01;50.72;101535.28;5031076;27;96855;-75
2021/09/04 08:40:10;;;;;;;1999.90;999.90;;;;;;;10.95;50.71;101524.44;5012992;27;97046;-75
2021/09/04 08:42:39;;;;;;;1999.90;999.90;;;;;;;10.95;50.69;101529.75;5047883;27;100963;-76
2021/09/04 08:45:09;;;;;;;1999.90;999.90;;;;;;;10.91;50.68;101527.84;5012797;27;99458;-75
2021/09/04 08:47:36;;;;;;;1999.90;999.90;;;;;;;10.92;50.76;101533.22;5014868;27;96730;-76
2021/09/04 08:50:05;;;;;;;1999.90;999.90;;;;;;;10.96;50.59;101527.13;5039945;27;97188;-77
2021/09/04 08:52:35;;;;;;;1999.90;999.90;;;;;;;10.97;50.38;101528.06;5030924;27;99406;-75
2021/09/04 08:55:05;;;;;;;1999.90;999.90;;;;;;;11.00;50.65;101528.13;5017129;27;99682;-77
2021/09/04 08:57:52;;;;;;;1999.90;999.90;;;;;;;11.04;50.44;101530.97;5036206;27;96611;-77
2021/09/04 09:00:58;;;;;;;1999.90;999.90;;;;;;;11.06;50.48;101534.56;5035409;27;96697;-77
2021/09/04 09:03:28;;;;;;;1999.90;999.90;;;;;;;11.05;50.36;101531.84;5038500;27;100604;-78
2021/09/04 09:05:58;;;;;;;1999.90;999.90;;;;;;;11.10;50.34;101535.56;5042135;27;99126;-78
2021/09/04 09:08:29;;;;;;;1999.90;999.90;;;;;;;11.19;50.27;101538.53;5037858;27;96983;-78
2021/09/04 09:11:02;;;;;;;1999.90;999.90;;;;;;;11.26;50.02;101543.16;5020061;27;97131;-78
2021/09/04 09:13:30;;;;;;;1999.90;999.90;;;;;;;11.34;50.09;101549.69;5019028;27;97830;-78
2021/09/04 09:16:01;;;;;;;1999.90;999.90;;;;;;;11.41;49.79;101542.75;5035985;27;99318;-77
2021/09/04 09:18:30;;;;;;;1999.90;999.90;;;;;;;11.46;49.64;101542.03;5018193;27;96994;-77
2021/09/04 09:21:01;;;;;;;1999.90;999.90;;;;;;;11.53;49.47;101544.03;5036578;27;96833;-76
2021/09/04 09:23:33;;;;;;;1999.90;999.90;;;;;;;11.58;49.26;101539.72;5021661;27;99043;-77
2021/09/04 09:26:14;;;;;;;1999.90;999.90;;;;;;;11.65;49.33;101552.38;5037137;27;97662;-77
2021/09/04 09:28:46;;;;;;;1999.90;999.90;;;;;;;11.70;49.05;101548.09;5018508;27;96891;-78
2021/09/04 09:31:15;;;;;;;1999.90;999.90;;;;;;;11.75;49.29;101551.78;5033592;27;96800;-78
2021/09/04 09:33:43;;;;;;;1999.90;999.90;;;;;;;11.80;48.64;101554.56;5034202;27;100379;-77
2021/09/04 09:36:12;;;;;;;1999.90;999.90;;;;;;;11.85;48.85;101548.50;5034014;27;99760;-77
2021/09/04 09:38:43;;;;;;;1999.90;999.90;;;;;;;11.82;48.69;101545.75;5049172;27;96672;-77
2021/09/04 09:41:11;;;;;;;1999.90;999.90;;;;;;;11.79;48.65;101545.69;5034489;27;97216;-77
2021/09/04 09:43:39;;;;;;;1999.90;999.90;;;;;;;11.81;48.77;101543.97;5036045;27;98442;-78
2021/09/04 09:46:08;;;;;;;1999.90;999.90;;;;;;;11.79;48.72;101539.44;5036900;27;100389;-77
2021/09/04 09:48:40;;;;;;;1999.90;999.90;;;;;;;11.77;48.36;101538.50;5044623;27;96769;-77
2021/09/04 09:51:11;;;;;;;1999.90;999.90;;;;;;;11.73;48.71;101540.16;5035738;27;96821;-78
2021/09/04 09:53:39;;;;;;;1999.90;999.90;;;;;;;11.72;48.63;101543.72;5040916;27;98823;-77
2021/09/04 09:56:07;;;;;;;1999.90;999.90;;;;;;;11.76;48.81;101534.03;5012105;27;99366;-78
2021/09/04 09:58:36;;;;;;;1999.90;999.90;;;;;;;11.82;48.48;101535.09;5035807;27;96989;-78
2021/09/04 10:01:04;;;;;;;1999.90;999.90;;;;;;;11.89;48.42;101534.41;5038874;27;96855;-77
2021/09/04 10:03:33;;;;;;;1999.90;999.90;;;;;;;11.96;48.17;101532.81;5018800;27;100554;-77
2021/09/04 10:06:02;;;;;;;1999.90;999.90;;;;;;;11.96;48.32;101535.50;5035600;27;99360;-78
2021/09/04 10:08:30;;;;;;;1999.90;999.90;;;;;;;11.98;48.01;101533.78;5032057;27;97050;-77
2021/09/04 10:10:58;;;;;;;1999.90;999.90;;;;;;;12.00;48.08;101532.00;5006278;27;97903;-78
2021/09/04 10:13:26;;;;;;;1999.90;999.90;;;;;;;12.07;48.01;101536.69;5043079;27;98184;-77
2021/09/04 10:15:56;;;;;;;1999.90;999.90;;;;;;;12.15;47.79;101537.78;5027676;27;97768;-77
2021/09/04 10:18:26;;;;;;;1999.90;999.90;;;;;;;12.20;47.79;101544.16;5032657;27;97093;-78
2021/09/04 10:21:07;;;;;;;1999.90;999.90;;;;;;;12.20;47.54;101535.28;5019121;27;97302;-78
2021/09/04 10:23:39;;;;;;;1999.90;999.90;;;;;;;12.26;47.73;101535.41;5040810;27;100064;-77
2021/09/04 10:26:28;;;;;;;1999.90;999.90;;;;;;;12.19;46.28;101539.69;5033986;27;97723;-77
2021/09/04 10:28:58;;;;;;;1999.90;999.90;;;;;;;12.16;47.77;101527.13;5015437;27;97385;-78
2021/09/04 10:31:56;;;;;;;1999.90;999.90;;;;;;;12.09;47.12;101538.50;5019282;27;97097;-77
2021/09/04 10:34:29;;;;;;;1999.90;999.90;;;;;;;12.07;47.67;101534.03;5033021;27;97863;-78
2021/09/04 10:37:05;;;;;;;1999.90;999.90;;;;;;;12.10;47.80;101528.75;5034938;27;99402;-77
2021/09/04 10:39:49;;;;;;;1999.90;999.90;;;;;;;12.12;47.46;101527.94;5019273;27;97091;-78
2021/09/04 10:42:18;;;;;;;1999.90;999.90;;;;;;;12.17;47.69;101521.00;5012971;27;97226;-78
2021/09/04 10:44:48;;;;;;;1999.90;999.90;;;;;;;12.22;47.68;101522.88;5035027;27;97677;-77
2021/09/04 10:47:17;;;;;;;1999.90;999.90;;;;;;;12.25;47.50;101512.28;5034880;27;98920;-77
2021/09/04 10:49:47;;;;;;;1999.90;999.90;;;;;;;12.30;47.46;101507.94;5041242;27;96962;-78
2021/09/04 10:52:16;;;;;;;1999.90;999.90;;;;;;;12.35;47.30;101499.19;5032958;27;96828;-78
2021/09/04 10:55:03;;;;;;;1999.90;999.90;;;;;;;12.39;46.96;101510.84;5017626;27;99514;-77
2021/09/04 10:57:51;;;;;;;1999.90;999.90;;;;;;;12.47;46.97;101506.63;5031387;27;98135;-78